Time;durP1;ratioP1;P1;durP2;ratioP2;P2;SDS_P1;SDS_P2;PMS_P1;PMS_P2;Temp;Humidity;BMP_temperature;BMP_pressure;BME280_temperature;BME280_humidity;BME280_pressure;Samples;Min_cycle;Max_cycle;Signal;HPM_P1;HPM_P2
2021/04/25 00:01:58;;;;;;;18.35;6.60;;;;;;;6.45;60.03;100057.25;4243451;33;34588;-88
2021/04/25 00:04:31;;;;;;;18.08;6.50;;;;;;;6.31;60.21;100049.69;4254497;33;34981;-90
2021/04/25 00:07:06;;;;;;;16.87;6.57;;;;;;;6.30;60.36;100048.00;4255373;33;35410;-93
2021/04/25 00:10:04;;;;;;;15.63;8.07;;;;;;;5.94;61.58;100047.91;4084318;33;34545;-91
2021/04/25 00:12:40;;;;;;;18.17;6.68;;;;;;;5.98;61.88;100042.12;4268915;33;34335;-89
2021/04/25 00:15:25;;;;;;;14.82;6.75;;;;;;;5.52;63.57;100048.41;4268982;33;34417;-95
2021/04/25 00:17:57;;;;;;;20.10;6.95;;;;;;;6.01;61.87;100043.69;4268389;33;35072;-88
2021/04/25 00:20:31;;;;;;;15.18;6.57;;;;;;;6.07;61.41;100039.56;4257579;33;32906;-95
2021/04/25 00:23:03;;;;;;;13.90;6.30;;;;;;;5.77;62.12;100042.34;4268470;33;34646;-88
2021/04/25 00:25:36;;;;;;;16.83;7.20;;;;;;;5.54;63.23;100031.19;4257512;33;33771;-94
2021/04/25 00:28:09;;;;;;;14.77;6.20;;;;;;;6.03;61.24;100036.31;4268054;33;35371;-94
2021/04/25 00:31:39;;;;;;;12.20;6.07;;;;;;;5.87;61.37;100030.72;4252614;33;34022;-90
2021/04/25 00:34:11;;;;;;;19.60;6.72;;;;;;;5.74;61.29;100028.41;4267962;33;33637;-95
2021/04/25 00:37:08;;;;;;;15.55;7.05;;;;;;;5.90;60.73;100035.78;4234270;33;33660;-88
2021/04/25 00:39:40;;;;;;;20.25;7.62;;;;;;;5.77;61.15;100034.31;4235039;33;34157;-88
2021/04/25 00:42:15;;;;;;;22.60;7.30;;;;;;;5.32;62.59;100036.94;4244669;33;33948;-95
2021/04/25 00:44:48;;;;;;;13.40;6.60;;;;;;;5.56;62.39;100039.09;4246511;33;33917;-89
2021/04/25 00:47:21;;;;;;;18.50;7.43;;;;;;;5.62;62.35;100042.00;4257378;33;33737;-96
2021/04/25 00:49:54;;;;;;;19.73;6.97;;;;;;;5.66;62.31;100037.22;4233506;33;34948;-89
2021/04/25 00:52:28;;;;;;;19.48;7.25;;;;;;;5.74;61.94;100034.59;4234846;33;34228;-95
2021/04/25 00:55:00;;;;;;;16.95;7.30;;;;;;;5.69;62.21;100036.03;4245256;33;34194;-89
2021/04/25 00:57:34;;;;;;;22.60;7.55;;;;;;;5.80;61.92;100035.84;4256875;33;34256;-93
2021/04/25 01:00:09;;;;;;;18.20;7.20;;;;;;;5.89;61.62;100036.81;4233131;33;33816;-95
2021/04/25 01:03:55;;;;;;;20.55;8.07;;;;;;;5.98;61.32;100031.41;3839303;34;34212;-91
2021/04/25 01:06:28;;;;;;;23.13;8.27;;;;;;;6.03;60.68;100025.56;4234934;33;33853;-89
2021/04/25 01:09:03;;;;;;;23.27;8.55;;;;;;;5.81;61.66;100022.28;4256760;33;33570;-91
2021/04/25 01:11:35;;;;;;;21.00;6.70;;;;;;;6.03;61.20;100014.84;4256639;33;34327;-95
2021/04/25 01:14:20;;;;;;;16.35;6.45;;;;;;;6.18;60.37;100012.47;4243979;33;33900;-89
2021/04/25 01:16:52;;;;;;;22.60;8.35;;;;;;;6.13;59.57;100012.94;4257905;33;32021;-95
2021/04/25 01:20:12;;;;;;;17.90;7.75;;;;;;;5.83;60.80;100019.47;4223615;33;35339;-96
2021/04/25 01:22:57;;;;;;;17.08;7.40;;;;;;;5.45;62.49;100026.72;4246571;33;34313;-89
2021/04/25 01:25:30;;;;;;;21.70;6.95;;;;;;;5.31;63.25;100022.66;4256795;33;33608;-96
2021/04/25 01:28:03;;;;;;;18.55;7.15;;;;;;;4.87;64.14;100025.88;4248099;33;33921;-95
2021/04/25 01:31:13;;;;;;;;;;;;;;;5.06;63.79;100019.66;4257895;28;35343;-94
2021/04/25 01:33:46;;;;;;;19.75;7.03;;;;;;;5.30;63.21;100015.62;4260233;33;34703;-89
2021/04/25 01:36:19;;;;;;;18.42;7.72;;;;;;;5.18;63.34;100012.28;4273440;33;33427;-90
2021/04/25 01:38:56;;;;;;;18.10;7.45;;;;;;;5.17;63.31;100013.25;4262327;33;35547;-89
2021/04/25 01:41:29;;;;;;;14.87;7.03;;;;;;;5.56;61.71;100017.63;4264078;33;33865;-90
2021/04/25 01:44:03;;;;;;;15.90;6.75;;;;;;;4.70;64.14;100016.75;4276404;33;34779;-95
2021/04/25 01:50:24;;;;;;;21.67;8.55;;;;;;;4.75;64.69;100013.63;4094356;33;35469;-89
2021/04/25 01:52:57;;;;;;;21.05;8.07;;;;;;;5.07;63.54;100012.44;4261694;33;33800;-95
2021/04/25 01:55:31;;;;;;;20.85;8.27;;;;;;;4.63;64.77;100015.62;4249212;33;34014;-94
2021/04/25 01:58:22;;;;;;;19.00;8.18;;;;;;;4.68;64.79;100013.34;4228227;33;36566;-95
2021/04/25 02:00:55;;;;;;;18.12;8.07;;;;;;;4.90;64.05;100016.72;4250205;33;33886;-90
2021/04/25 02:03:28;;;;;;;19.05;8.68;;;;;;;4.86;64.29;100015.31;4259884;33;34686;-95
2021/04/25 02:06:15;;;;;;;22.25;8.35;;;;;;;5.10;63.58;100004.97;4227151;33;35105;-89
2021/04/25 02:08:48;;;;;;;21.05;7.05;;;;;;;5.09;63.72;100005.94;4229564;33;34169;-95
2021/04/25 02:11:46;;;;;;;22.77;8.38;;;;;;;4.90;64.05;100006.00;4066154;33;37934;-94
2021/04/25 02:14:18;;;;;;;19.67;10.57;;;;;;;4.95;63.96;100004.59;4230348;33;34893;-89
2021/04/25 02:16:51;;;;;;;17.10;6.90;;;;;;;5.04;63.44;99997.50;4220122;33;33259;-89
2021/04/25 02:19:23;;;;;;;21.60;6.82;;;;;;;5.25;62.29;99996.44;4231520;33;33302;-88
2021/04/25 02:21:56;;;;;;;17.75;7.62;;;;;;;5.26;62.09;99990.94;4229307;33;34177;-95
2021/04/25 02:24:35;;;;;;;22.73;8.82;;;;;;;4.99;63.18;99996.25;4226406;33;34693;-94
2021/04/25 02:27:09;;;;;;;21.27;8.93;;;;;;;5.11;62.44;99992.41;4245570;33;33596;-96
2021/04/25 02:29:42;;;;;;;20.27;8.27;;;;;;;4.44;65.15;99984.34;4233737;33;33729;-88
2021/04/25 02:32:14;;;;;;;19.12;8.00;;;;;;;5.02;63.00;99983.41;4244706;33;33610;-96
2021/04/25 02:34:49;;;;;;;20.15;7.50;;;;;;;5.24;62.33;99976.00;4233104;33;34803;-96
2021/04/25 02:44:54;;;;;;;18.23;6.97;;;;;;;4.69;64.32;99987.44;4177555;33;35957;-96
2021/04/25 02:47:41;;;;;;;24.63;9.10;;;;;;;4.70;64.25;99981.94;4218103;33;34880;-89
2021/04/25 02:50:14;;;;;;;18.08;8.05;;;;;;;4.57;64.35;99981.41;4242443;33;34538;-91
2021/04/25 02:52:47;;;;;;;19.15;8.70;;;;;;;4.65;64.70;99976.16;4240397;33;33481;-96
2021/04/25 02:55:20;;;;;;;18.27;7.12;;;;;;;5.05;63.31;99983.13;4231318;33;34682;-89
2021/04/25 02:57:54;;;;;;;17.33;6.70;;;;;;;5.00;63.36;99979.19;4225537;33;35661;-95
2021/04/25 03:00:28;;;;;;;17.27;7.30;;;;;;;4.57;64.36;99976.03;4217876;33;33960;-96
2021/04/25 03:03:19;;;;;;;13.38;6.47;;;;;;;4.74;64.34;99974.47;4231664;33;35729;-96
2021/04/25 03:05:55;;;;;;;16.00;7.93;;;;;;;4.77;64.45;99964.31;4207317;33;34224;-90
2021/04/25 03:08:28;;;;;;;17.33;6.90;;;;;;;4.78;64.08;99965.97;4226183;33;33334;-95
2021/04/25 03:11:01;;;;;;;15.35;7.40;;;;;;;4.88;63.72;99965.97;4221557;33;33741;-89
2021/04/25 03:13:34;;;;;;;17.65;7.68;;;;;;;4.94;63.52;99964.56;4243812;33;32666;-90
2021/04/25 03:16:06;;;;;;;13.93;6.65;;;;;;;4.77;63.96;99968.81;4258444;33;34548;-95
2021/04/25 03:18:56;;;;;;;13.05;6.47;;;;;;;4.82;63.78;99963.87;4221025;33;36279;-94
2021/04/25 03:22:20;;;;;;;15.50;6.28;;;;;;;4.92;63.38;99967.34;3999906;33;35712;-88
2021/04/25 03:24:53;;;;;;;16.30;8.02;;;;;;;5.26;62.18;99957.94;4237221;33;34933;-88
2021/04/25 03:27:25;;;;;;;15.43;6.82;;;;;;;4.82;63.60;99961.19;4253746;33;32224;-95
2021/04/25 03:30:22;;;;;;;16.35;6.95;;;;;;;4.95;63.29;99951.00;3866309;28;35333;-90
2021/04/25 03:32:55;;;;;;;14.57;6.80;;;;;;;5.10;62.90;99951.38;4274329;33;33970;-89
2021/04/25 03:35:28;;;;;;;19.35;8.38;;;;;;;5.13;62.46;99952.91;4282483;33;32865;-88
2021/04/25 03:38:00;;;;;;;15.77;6.80;;;;;;;4.80;63.65;99956.97;4274541;33;33191;-94
2021/04/25 03:40:55;;;;;;;19.25;7.20;;;;;;;5.05;62.80;99961.69;4241790;33;34915;-94
2021/04/25 03:43:27;;;;;;;13.07;6.43;;;;;;;5.02;63.07;99945.06;4221719;33;34348;-95
2021/04/25 03:46:15;;;;;;;14.13;6.95;;;;;;;4.98;63.16;99949.84;4218461;33;33788;-88
2021/04/25 03:48:50;;;;;;;15.20;6.90;;;;;;;4.85;64.03;99952.00;4220946;33;34470;-88
2021/04/25 03:51:23;;;;;;;18.02;6.85;;;;;;;4.92;63.75;99950.44;4219193;33;34203;-88
2021/04/25 03:53:56;;;;;;;16.73;6.70;;;;;;;5.18;62.84;99950.66;4231523;33;34424;-88
2021/04/25 03:56:29;;;;;;;13.62;6.07;;;;;;;4.70;64.18;99956.97;4221755;33;33143;-95
2021/04/25 03:59:02;;;;;;;21.55;7.00;;;;;;;4.82;64.04;99965.69;4218564;33;34365;-89
2021/04/25 04:01:35;;;;;;;16.75;6.95;;;;;;;4.89;63.89;99958.78;4220971;33;33687;-89
2021/04/25 04:04:08;;;;;;;18.10;7.50;;;;;;;4.96;63.59;99946.50;4233151;33;33211;-89
2021/04/25 04:06:40;;;;;;;16.80;6.25;;;;;;;4.95;63.80;99955.50;4234100;33;33159;-95
2021/04/25 04:10:00;;;;;;;12.85;7.05;;;;;;;4.99;64.37;99946.19;4033149;28;36314;-89
2021/04/25 04:12:32;;;;;;;20.67;8.02;;;;;;;4.97;64.37;99948.19;4267338;33;34414;-89
2021/04/25 04:15:06;;;;;;;18.98;7.47;;;;;;;5.46;62.84;99951.50;4279270;33;35511;-94
2021/04/25 04:17:38;;;;;;;17.52;7.32;;;;;;;5.23;63.21;99955.56;4261659;33;34219;-89
2021/04/25 04:20:23;;;;;;;17.33;7.55;;;;;;;5.37;63.10;99949.69;4270178;33;34836;-89
2021/04/25 04:22:55;;;;;;;16.40;7.15;;;;;;;5.25;63.80;99945.53;4262704;33;34882;-89
2021/04/25 04:25:28;;;;;;;14.15;6.62;;;;;;;5.53;63.03;99956.25;4274828;33;34417;-88
2021/04/25 04:28:01;;;;;;;19.15;8.00;;;;;;;5.64;62.83;99948.84;4262605;33;34032;-94
2021/04/25 04:30:53;;;;;;;16.45;7.40;;;;;;;6.00;62.20;99940.03;4249715;33;34202;-88
2021/04/25 04:33:25;;;;;;;18.10;7.45;;;;;;;5.90;62.85;99940.06;4246465;33;35189;-88
2021/04/25 04:35:58;;;;;;;18.87;7.87;;;;;;;5.98;63.02;99936.66;4229877;33;32651;-88
2021/04/25 04:38:32;;;;;;;18.05;7.82;;;;;;;5.99;63.26;99938.34;4242485;33;33721;-89
2021/04/25 04:41:04;;;;;;;16.60;7.75;;;;;;;6.14;63.16;99931.44;4242651;33;34681;-95
2021/04/25 04:43:37;;;;;;;17.95;7.37;;;;;;;6.22;63.23;99929.84;4220442;33;34371;-90
2021/04/25 04:46:10;;;;;;;18.83;8.63;;;;;;;6.39;62.94;99923.56;4235084;33;34212;-89
2021/04/25 04:48:43;;;;;;;17.02;7.93;;;;;;;6.66;62.46;99924.44;4257476;33;33836;-96
2021/04/25 04:55:04;;;;;;;15.98;7.43;;;;;;;6.49;63.37;99912.75;4245389;33;32811;-89
2021/04/25 04:57:36;;;;;;;20.30;8.13;;;;;;;6.72;63.26;99918.44;4257079;33;33634;-88
2021/04/25 05:00:09;;;;;;;20.98;8.55;;;;;;;7.01;62.51;99912.75;4245443;33;33288;-95
2021/04/25 05:02:57;;;;;;;20.30;10.25;;;;;;;7.23;62.40;99914.03;4217681;33;36510;-89
2021/04/25 05:05:30;;;;;;;14.38;7.80;;;;;;;7.68;60.57;99905.75;4228839;33;34374;-89
2021/04/25 05:08:03;;;;;;;19.10;8.57;;;;;;;7.51;61.05;99908.41;4247997;33;33215;-86
2021/04/25 05:10:35;;;;;;;15.38;8.18;;;;;;;7.60;62.00;99910.13;4247969;33;32166;-87
2021/04/25 05:13:09;;;;;;;20.27;8.55;;;;;;;7.93;61.88;99912.03;4247667;33;33606;-86
2021/04/25 05:15:42;;;;;;;15.07;8.23;;;;;;;8.25;61.31;99910.37;4247145;33;34199;-89
2021/04/25 05:18:15;;;;;;;16.87;8.07;;;;;;;8.19;61.71;99903.81;4253835;33;33566;-87
2021/04/25 05:20:47;;;;;;;18.70;9.13;;;;;;;8.53;60.91;99908.19;4245076;33;33804;-89
2021/04/25 05:23:20;;;;;;;27.02;9.00;;;;;;;9.02;58.88;99902.69;4246037;33;34770;-87
2021/04/25 05:25:54;;;;;;;25.23;10.48;;;;;;;9.31;58.69;99897.69;4244983;33;34367;-87
2021/04/25 05:28:29;;;;;;;20.15;10.27;;;;;;;9.44;58.26;99902.53;4259439;33;34527;-87
2021/04/25 05:31:01;;;;;;;21.50;9.05;;;;;;;9.45;58.83;99896.13;4258238;33;34151;-87
2021/04/25 05:33:36;;;;;;;17.17;8.25;;;;;;;9.80;57.20;99893.91;4255323;33;35584;-89
2021/04/25 05:36:08;;;;;;;20.60;8.90;;;;;;;10.04;55.49;99895.59;4228287;33;33759;-87
2021/04/25 05:38:41;;;;;;;18.23;9.07;;;;;;;10.06;55.62;99888.16;4248473;33;33385;-87
2021/04/25 05:41:13;;;;;;;15.00;8.02;;;;;;;10.39;55.43;99877.94;4245528;33;32325;-90
2021/04/25 05:43:47;;;;;;;19.50;9.43;;;;;;;10.52;53.85;99889.97;4245366;33;33579;-89
2021/04/25 05:46:19;;;;;;;18.05;7.82;;;;;;;10.81;53.85;99885.63;4249109;33;34371;-90
2021/04/25 05:48:52;;;;;;;19.50;8.77;;;;;;;11.03;53.63;99882.03;4246223;33;33614;-89
2021/04/25 05:51:25;;;;;;;17.80;8.63;;;;;;;11.54;53.30;99881.22;4239560;33;34012;-89
2021/04/25 05:53:58;;;;;;;18.67;9.40;;;;;;;11.55;52.45;99876.63;4241876;33;33760;-89
2021/04/25 05:56:31;;;;;;;16.15;9.15;;;;;;;11.79;52.80;99876.25;4241284;33;34742;-88
2021/04/25 05:59:04;;;;;;;18.70;10.18;;;;;;;11.88;52.15;99876.16;4239927;33;33821;-89
2021/04/25 06:01:36;;;;;;;21.85;10.93;;;;;;;12.24;51.38;99880.69;4239589;33;33769;-86
2021/04/25 06:04:09;;;;;;;23.77;11.85;;;;;;;12.31;50.10;99882.41;4237576;33;33901;-86
2021/04/25 06:06:41;;;;;;;25.77;12.68;;;;;;;12.56;48.32;99889.28;4242218;33;34568;-89
2021/04/25 06:09:14;;;;;;;28.27;13.25;;;;;;;12.67;47.09;99877.91;4240853;33;33752;-89
2021/04/25 06:11:46;;;;;;;23.23;12.25;;;;;;;12.71;46.80;99876.47;4239836;33;33172;-87
2021/04/25 06:14:19;;;;;;;23.67;13.18;;;;;;;13.10;46.91;99869.63;4237906;33;33637;-87
2021/04/25 06:16:51;;;;;;;30.73;13.62;;;;;;;13.45;45.97;99872.31;4241908;33;33754;-87
2021/04/25 06:19:26;;;;;;;24.83;13.45;;;;;;;13.74;44.09;99864.87;4247321;33;33412;-87
2021/04/25 06:21:59;;;;;;;23.77;13.30;;;;;;;13.95;44.16;99866.56;4250114;33;33856;-89
2021/04/25 06:24:32;;;;;;;29.63;13.57;;;;;;;14.10;44.12;99866.38;4246854;33;33730;-88
2021/04/25 06:27:05;;;;;;;28.42;13.98;;;;;;;14.29;44.40;99862.03;4231585;33;35590;-90
2021/04/25 06:29:38;;;;;;;21.80;12.23;;;;;;;14.61;43.62;99865.81;4228934;33;34410;-91
2021/04/25 06:32:11;;;;;;;21.17;12.80;;;;;;;14.86;42.25;99867.03;4240793;33;34581;-90
2021/04/25 06:34:52;;;;;;;26.27;13.40;;;;;;;14.92;42.82;99867.00;4183237;33;35397;-91
2021/04/25 06:37:24;;;;;;;27.00;13.45;;;;;;;14.94;42.70;99862.19;4203753;33;33984;-91
2021/04/25 06:39:58;;;;;;;20.48;12.93;;;;;;;15.05;42.78;99854.44;4238619;33;35196;-91
2021/04/25 06:42:31;;;;;;;20.60;11.90;;;;;;;15.23;42.86;99854.56;4237816;33;33122;-90
2021/04/25 06:45:07;;;;;;;24.45;11.90;;;;;;;15.24;42.71;99858.97;4235693;33;34517;-90
2021/04/25 06:47:40;;;;;;;22.17;11.32;;;;;;;15.59;41.76;99850.41;4236035;33;34807;-91
2021/04/25 06:50:14;;;;;;;21.27;12.63;;;;;;;15.49;42.25;99858.22;4225514;33;33629;-91
2021/04/25 06:52:47;;;;;;;23.33;13.23;;;;;;;15.56;41.18;99839.97;4237684;33;34125;-91
2021/04/25 06:55:23;;;;;;;24.65;14.23;;;;;;;15.47;41.64;99852.16;4236929;33;33684;-90
2021/04/25 06:57:55;;;;;;;24.40;13.88;;;;;;;15.17;43.93;99853.53;4239503;33;33584;-91
2021/04/25 07:00:29;;;;;;;27.83;14.15;;;;;;;15.58;43.17;99850.63;4235628;33;33460;-91
2021/04/25 07:03:04;;;;;;;25.00;12.48;;;;;;;15.61;42.31;99848.28;4232126;33;33879;-90
2021/04/25 07:05:39;;;;;;;27.42;13.13;;;;;;;15.69;38.97;99850.78;4239018;33;34003;-90
2021/04/25 07:08:15;;;;;;;25.05;13.32;;;;;;;14.85;36.35;99846.28;4226452;33;33568;-94
2021/04/25 07:11:00;;;;;;;22.48;12.05;;;;;;;15.04;35.66;99850.03;4241645;33;35765;-94
2021/04/25 07:13:33;;;;;;;23.15;12.13;;;;;;;14.36;35.86;99851.97;4249557;33;33970;-94
2021/04/25 07:16:12;;;;;;;17.33;11.68;;;;;;;14.47;35.99;99848.63;4231611;33;34894;-96
2021/04/25 07:18:48;;;;;;;24.30;12.20;;;;;;;13.93;34.79;99850.47;4248017;33;33287;-92
2021/04/25 07:21:47;;;;;;;18.07;11.93;;;;;;;14.62;34.59;99853.88;4231907;33;35320;-94
2021/04/25 07:24:19;;;;;;;26.85;12.75;;;;;;;14.94;35.23;99845.00;4258266;33;32322;-89
2021/04/25 07:26:53;;;;;;;27.98;12.55;;;;;;;14.35;36.44;99846.75;4252158;33;34723;-87
2021/04/25 07:29:47;;;;;;;25.10;13.15;;;;;;;15.22;35.64;99850.16;4240765;33;34164;-95
2021/04/25 07:32:29;;;;;;;20.73;12.43;;;;;;;15.04;36.10;99836.41;4242275;33;33439;-96
2021/04/25 07:35:11;;;;;;;27.80;12.98;;;;;;;15.32;34.63;99839.66;4240471;33;33280;-87
2021/04/25 07:38:00;;;;;;;22.75;13.07;;;;;;;15.78;33.70;99839.63;4241500;33;33530;-87
2021/04/25 07:40:53;;;;;;;20.37;12.70;;;;;;;15.61;35.19;99834.69;4241511;33;35338;-95
2021/04/25 07:43:31;;;;;;;21.30;11.75;;;;;;;15.96;35.74;99833.44;4239173;33;34133;-85
2021/04/25 07:46:03;;;;;;;21.17;13.45;;;;;;;16.00;32.59;99830.09;4235344;33;32351;-86
2021/04/25 07:48:48;;;;;;;;;;;;;;;16.10;34.56;99834.19;4229425;33;34556;-96
2021/04/25 07:51:26;;;;;;;;;;;;;;;16.40;33.96;99835.19;4228747;33;34001;-86
2021/04/25 07:54:04;;;;;;;24.98;11.10;;;;;;;16.12;32.72;99827.44;4231385;33;33975;-86
2021/04/25 07:56:47;;;;;;;26.17;12.07;;;;;;;16.05;31.96;99822.06;4234449;33;33975;-96
2021/04/25 07:59:30;;;;;;;19.35;11.95;;;;;;;15.88;34.59;99832.69;4234176;33;33269;-93
2021/04/25 08:02:14;;;;;;;22.80;12.50;;;;;;;16.34;33.69;99836.09;4245408;33;32778;-90
2021/04/25 08:04:47;;;;;;;20.77;11.95;;;;;;;16.08;32.75;99839.88;4235117;33;34403;-90
2021/04/25 08:07:41;;;;;;;27.35;12.85;;;;;;;16.15;34.52;99837.09;4213813;34;34362;-96
2021/04/25 08:10:30;;;;;;;28.80;13.07;;;;;;;15.11;35.61;99837.22;4234847;33;33381;-90
2021/04/25 08:13:20;;;;;;;20.50;13.50;;;;;;;16.03;35.04;99837.81;4246027;33;33812;-96
2021/04/25 08:16:05;;;;;;;28.15;15.50;;;;;;;16.49;35.04;99829.47;4239324;33;32468;-91
2021/04/25 08:19:01;;;;;;;22.57;13.53;;;;;;;16.48;35.23;99830.50;4207075;34;36140;-94
2021/04/25 08:21:37;;;;;;;25.65;14.05;;;;;;;16.85;33.68;99820.47;4215289;34;33495;-86
2021/04/25 08:24:12;;;;;;;27.83;14.25;;;;;;;15.87;35.60;99820.09;4228353;33;33725;-86
2021/04/25 08:26:47;;;;;;;25.00;13.68;;;;;;;15.76;36.75;99828.09;4209862;34;33379;-96
2021/04/25 08:29:58;;;;;;;29.02;14.93;;;;;;;16.73;36.97;99827.75;4216352;33;33449;-86
2021/04/25 08:32:35;;;;;;;26.12;13.70;;;;;;;15.98;36.71;99823.16;4212445;34;33713;-86
2021/04/25 08:35:08;;;;;;;27.73;15.25;;;;;;;16.57;36.21;99824.56;4214364;34;33704;-88
2021/04/25 08:37:43;;;;;;;22.30;14.30;;;;;;;16.90;36.49;99817.94;4201249;34;33870;-93
2021/04/25 08:40:21;;;;;;;25.67;15.15;;;;;;;16.65;36.47;99812.50;4209299;34;35143;-85
2021/04/25 08:43:06;;;;;;;27.37;13.98;;;;;;;16.35;37.82;99813.22;4209013;34;34264;-95
2021/04/25 08:45:56;;;;;;;23.20;13.85;;;;;;;16.53;36.08;99817.87;4225702;33;33444;-94
2021/04/25 08:48:35;;;;;;;22.10;12.00;;;;;;;17.76;36.06;99804.22;4206745;34;34407;-94
2021/04/25 08:51:10;;;;;;;24.37;13.77;;;;;;;18.24;34.08;99815.28;4201870;34;34056;-93
2021/04/25 08:53:54;;;;;;;21.42;12.30;;;;;;;17.22;34.82;99814.22;4215456;34;34511;-94
2021/04/25 08:56:33;;;;;;;22.33;12.20;;;;;;;17.58;34.77;99807.00;4216361;34;35004;-86
2021/04/25 08:59:24;;;;;;;22.77;13.40;;;;;;;17.26;33.07;99809.94;4216650;34;34688;-93
2021/04/25 09:02:10;;;;;;;26.83;13.88;;;;;;;16.93;35.87;99800.25;4215579;34;32554;-94
2021/04/25 09:04:49;;;;;;;22.20;12.82;;;;;;;17.42;35.85;99798.38;4216843;34;33461;-94
2021/04/25 09:07:34;;;;;;;22.27;12.98;;;;;;;17.40;34.39;99796.97;4244202;33;34247;-95
2021/04/25 09:10:08;;;;;;;23.83;13.05;;;;;;;17.87;33.27;99786.16;4242652;33;34240;-96
2021/04/25 09:12:51;;;;;;;;;;;;;;;17.39;33.56;99776.16;4246990;33;33114;-96
2021/04/25 09:16:01;;;;;;;22.85;11.23;;;;;;;18.04;34.10;99783.62;4250884;33;34926;-96
2021/04/25 09:18:43;;;;;;;23.12;11.65;;;;;;;17.54;32.88;99783.94;4241302;33;33701;-94
2021/04/25 09:21:16;;;;;;;19.77;11.57;;;;;;;18.28;31.72;99767.25;4241703;33;35055;-94
2021/04/25 09:23:48;;;;;;;29.87;13.40;;;;;;;18.31;32.38;99774.97;4248795;33;32631;-95
2021/04/25 09:30:29;;;;;;;21.58;11.07;;;;;;;18.02;32.39;99755.66;4250422;33;33787;-96
2021/04/25 09:33:27;;;;;;;19.42;9.38;;;;;;;18.62;31.50;99760.09;4238298;33;32695;-96
2021/04/25 09:36:30;;;;;;;15.40;8.73;;;;;;;18.33;31.84;99770.09;4221175;33;34370;-96
2021/04/25 09:40:17;;;;;;;18.15;8.63;;;;;;;17.81;31.72;99757.87;4218385;33;20139;-95
2021/04/25 09:43:45;;;;;;;20.90;8.60;;;;;;;18.86;30.84;99752.69;4205346;33;20127;-96
2021/04/25 09:47:03;;;;;;;18.90;9.52;;;;;;;19.37;30.08;99768.47;4187673;34;33546;-96
2021/04/25 09:49:46;;;;;;;27.67;10.25;;;;;;;19.31;33.13;99756.59;4186319;34;31773;-96
2021/04/25 09:53:38;;;;;;;;;;;;;;;19.88;30.41;99746.66;4129474;34;34178;-96
2021/04/25 09:56:50;;;;;;;12.93;6.75;;;;;;;19.57;30.70;99746.91;4040739;33;20205;-96
2021/04/25 09:59:50;;;;;;;14.25;8.13;;;;;;;18.93;30.91;99751.72;4085225;35;32720;-96
2021/04/25 10:03:05;;;;;;;16.27;7.53;;;;;;;19.35;31.29;99748.72;4122550;34;34319;-96
2021/04/25 10:06:29;;;;;;;19.95;8.40;;;;;;;19.77;29.32;99745.62;4094130;34;269274;-96
2021/04/25 10:09:52;;;;;;;15.10;7.57;;;;;;;19.09;30.48;99722.72;4107009;35;33652;-89
2021/04/25 10:13:06;;;;;;;17.08;9.13;;;;;;;19.47;31.92;99724.00;4133183;34;33167;-96
2021/04/25 10:15:43;;;;;;;18.20;9.13;;;;;;;20.33;30.57;99720.19;4167723;34;34064;-92
2021/04/25 10:18:50;;;;;;;16.08;9.27;;;;;;;20.49;29.78;99718.50;4161958;34;34248;-96
2021/04/25 10:25:01;;;;;;;12.57;8.13;;;;;;;20.63;29.30;99714.31;4183316;34;34922;-89
2021/04/25 10:27:34;;;;;;;14.02;8.85;;;;;;;20.40;29.75;99716.16;4239482;33;32747;-88
2021/04/25 10:30:52;;;;;;;13.70;8.00;;;;;;;19.86;29.85;99711.25;4261720;33;33863;-92
2021/04/25 10:34:02;;;;;;;15.90;7.87;;;;;;;20.55;29.71;99718.28;4253717;33;34433;-95
2021/04/25 10:36:47;;;;;;;13.35;7.93;;;;;;;20.68;30.52;99700.66;4255390;33;33103;-92
2021/04/25 10:39:54;;;;;;;12.90;8.35;;;;;;;20.78;28.95;99706.28;4260235;33;33037;-87
2021/04/25 10:42:35;;;;;;;13.48;7.45;;;;;;;21.73;27.37;99693.25;4252338;33;36674;-94
2021/04/25 10:46:00;;;;;;;14.00;7.87;;;;;;;22.19;26.61;99682.59;4199118;34;33401;-92
2021/04/25 10:48:51;;;;;;;16.48;9.55;;;;;;;22.46;25.34;99681.66;4199923;34;37224;-94
2021/04/25 10:51:51;;;;;;;14.38;8.52;;;;;;;20.43;28.50;99687.38;4195509;34;33174;-96
2021/04/25 10:55:20;;;;;;;11.95;7.57;;;;;;;22.41;27.43;99670.59;4224021;33;35146;-93
2021/04/25 10:58:21;;;;;;;13.65;8.73;;;;;;;22.29;26.92;99674.38;4195538;34;35112;-93
2021/04/25 11:00:54;;;;;;;16.08;7.70;;;;;;;22.82;26.89;99663.34;4223780;33;34395;-95
2021/04/25 11:04:01;;;;;;;14.20;7.28;;;;;;;22.28;25.90;99671.91;4217633;33;33337;-96
2021/04/25 11:07:42;;;;;;;12.35;5.72;;;;;;;21.66;25.08;99666.81;4139629;34;33977;-96
2021/04/25 11:10:54;;;;;;;10.93;5.90;;;;;;;23.32;25.41;99658.25;4183868;34;33131;-93
2021/04/25 11:13:55;;;;;;;15.20;6.82;;;;;;;24.10;27.29;99654.38;4219092;33;33585;-93
2021/04/25 11:16:52;;;;;;;10.73;6.65;;;;;;;24.78;25.60;99649.47;4207635;33;32189;-96
2021/04/25 11:19:52;;;;;;;12.95;6.50;;;;;;;24.55;23.35;99654.53;4219541;33;32739;-94
2021/04/25 11:22:49;;;;;;;14.32;6.57;;;;;;;23.15;24.35;99655.75;4220474;33;34923;-96
2021/04/25 11:25:28;;;;;;;15.00;7.65;;;;;;;22.53;24.71;99654.69;4208841;33;33737;-95
2021/04/25 11:29:03;;;;;;;12.23;7.45;;;;;;;21.37;25.41;99671.72;4236421;33;33236;-94
2021/04/25 11:32:00;;;;;;;12.40;7.50;;;;;;;22.31;24.81;99660.34;4230083;33;35661;-96
2021/04/25 11:34:57;;;;;;;18.27;10.05;;;;;;;23.32;24.66;99660.19;4249410;33;32584;-95
2021/04/25 11:37:42;;;;;;;23.23;12.43;;;;;;;24.02;26.16;99648.59;4243186;33;34029;-95
2021/04/25 11:41:14;;;;;;;24.05;12.93;;;;;;;24.58;26.47;99648.47;4243463;28;20073;-96
2021/04/25 11:43:59;;;;;;;19.23;12.52;;;;;;;25.10;25.64;99654.53;4243270;33;33257;-92
2021/04/25 11:46:39;;;;;;;19.05;13.02;;;;;;;25.18;25.56;99650.31;4257076;33;33242;-95
2021/04/25 11:49:53;;;;;;;24.55;14.93;;;;;;;25.32;23.66;99653.31;4248320;33;33876;-96
2021/04/25 11:53:06;;;;;;;19.58;13.35;;;;;;;24.82;25.45;99650.53;4153211;34;31807;-96
2021/04/25 11:56:27;;;;;;;16.33;12.27;;;;;;;24.57;24.40;99651.47;4212207;33;34203;-96
2021/04/25 11:59:51;;;;;;;18.70;11.27;;;;;;;25.13;26.95;99658.66;4186278;34;34125;-96
2021/04/25 12:07:09;;;;;;;19.48;12.85;;;;;;;25.64;23.37;99660.25;4160732;34;33517;-94
2021/04/25 12:13:20;;;;;;;14.95;11.82;;;;;;;26.06;23.32;99653.25;4174954;34;20125;-95
2021/04/25 12:16:36;;;;;;;19.08;11.77;;;;;;;26.39;23.90;99658.97;4159258;34;35828;-96
2021/04/25 12:19:40;;;;;;;19.92;12.15;;;;;;;26.33;20.35;99660.16;4168180;34;32702;-96
2021/04/25 12:23:01;;;;;;;16.45;12.27;;;;;;;25.66;21.50;99663.53;4237045;28;20100;-96
2021/04/25 12:26:42;;;;;;;18.42;11.57;;;;;;;25.23;22.20;99655.03;4361558;28;33084;-96
2021/04/25 12:30:00;;;;;;;18.98;11.35;;;;;;;24.40;22.77;99654.56;4277408;28;36182;-96
2021/04/25 12:34:01;;;;;;;21.02;12.07;;;;;;;24.85;23.07;99653.56;1775339;28;20417;-93
2021/04/25 12:37:13;;;;;;;21.27;12.05;;;;;;;26.15;23.76;99643.16;4214702;33;32604;-96
2021/04/25 12:44:05;;;;;;;21.87;13.73;;;;;;;25.88;21.00;99641.78;4227603;33;35625;-94
2021/04/25 12:46:53;;;;;;;22.70;15.77;;;;;;;23.94;22.71;99648.06;4207656;33;32196;-96
2021/04/25 12:49:48;;;;;;;19.50;13.90;;;;;;;24.59;23.74;99635.47;4218138;33;35521;-96
2021/04/25 12:52:52;;;;;;;26.00;15.85;;;;;;;25.79;24.55;99634.38;4187799;33;35125;-96
2021/04/25 12:55:38;;;;;;;24.45;15.80;;;;;;;25.82;22.11;99628.28;4227942;33;36092;-96
2021/04/25 12:58:20;;;;;;;22.37;16.05;;;;;;;24.98;22.82;99635.53;4221443;33;33339;-91
2021/04/25 13:01:21;;;;;;;19.48;12.52;;;;;;;26.10;22.19;99629.41;4236250;33;34668;-96
2021/04/25 13:03:58;;;;;;;19.98;15.45;;;;;;;24.99;21.82;99633.59;4212495;33;35221;-92
2021/04/25 13:06:33;;;;;;;22.92;16.08;;;;;;;24.50;23.22;99633.25;4223279;33;33518;-90
2021/04/25 13:09:13;;;;;;;21.77;14.48;;;;;;;24.23;23.38;99630.06;4225616;33;33860;-90
2021/04/25 13:12:19;;;;;;;19.77;15.07;;;;;;;24.80;22.81;99625.13;4225891;33;34181;-96
2021/04/25 13:15:29;;;;;;;19.00;12.93;;;;;;;25.24;23.36;99623.47;4221962;33;33417;-94
2021/04/25 13:18:36;;;;;;;23.20;14.23;;;;;;;25.30;22.27;99616.81;4236533;33;20180;-96
2021/04/25 13:22:10;;;;;;;20.90;12.25;;;;;;;25.05;22.35;99615.06;4193921;33;33677;-96